sensor_id;sensor_type;location;lat;lon;timestamp;temperature;humidity
20070;DHT22;10195;50.868;4.382;2023-07-08T00:00:21;22.20;99.90
20070;DHT22;10195;50.868;4.382;2023-07-08T00:02:47;22.20;99.90
20070;DHT22;10195;50.868;4.382;2023-07-08T00:05:14;22.10;99.90
20070;DHT22;10195;50.868;4.382;2023-07-08T00:07:41;22.10;99.90
20070;DHT22;10195;50.868;4.382;2023-07-08T00:10:16;22.00;99.90
20070;DHT22;10195;50.868;4.382;2023-07-08T00:12:43;22.10;99.90
20070;DHT22;10195;50.868;4.382;2023-07-08T00:15:09;22.00;99.90
20070;DHT22;10195;50.868;4.382;2023-07-08T00:17:36;21.80;99.90
20070;DHT22;10195;50.868;4.382;2023-07-08T00:20:12;21.80;99.90
20070;DHT22;10195;50.868;4.382;2023-07-08T00:22:39;21.90;99.90
20070;DHT22;10195;50.868;4.382;2023-07-08T00:25:06;21.80;99.90
20070;DHT22;10195;50.868;4.382;2023-07-08T00:27:33;21.70;99.90
20070;DHT22;10195;50.868;4.382;2023-07-08T00:29:58;21.70;99.90
20070;DHT22;10195;50.868;4.382;2023-07-08T00:32:25;21.60;99.90
20070;DHT22;10195;50.868;4.382;2023-07-08T00:34:51;21.60;99.90
20070;DHT22;10195;50.868;4.382;2023-07-08T00:37:17;21.60;99.90
20070;DHT22;10195;50.868;4.382;2023-07-08T00:39:42;21.50;99.90
20070;DHT22;10195;50.868;4.382;2023-07-08T00:42:19;21.50;99.90
20070;DHT22;10195;50.868;4.382;2023-07-08T00:44:48;21.50;99.90
20070;DHT22;10195;50.868;4.382;2023-07-08T00:47:14;21.40;99.90
20070;DHT22;10195;50.868;4.382;2023-07-08T00:49:46;21.40;99.90
20070;DHT22;10195;50.868;4.382;2023-07-08T00:54:44;21.40;99.90
20070;DHT22;10195;50.868;4.382;2023-07-08T00:57:10;21.30;99.90
20070;DHT22;10195;50.868;4.382;2023-07-08T00:59:55;21.30;99.90
20070;DHT22;10195;50.868;4.382;2023-07-08T01:02:24;21.30;99.90
20070;DHT22;10195;50.868;4.382;2023-07-08T01:05:03;21.30;99.90
20070;DHT22;10195;50.868;4.382;2023-07-08T01:07:30;21.20;99.90
20070;DHT22;10195;50.868;4.382;2023-07-08T01:10:03;21.10;99.90
20070;DHT22;10195;50.868;4.382;2023-07-08T01:12:34;21.10;99.90
20070;DHT22;10195;50.868;4.382;2023-07-08T01:15:03;21.20;99.90
20070;DHT22;10195;50.868;4.382;2023-07-08T01:17:29;21.20;99.90
20070;DHT22;10195;50.868;4.382;2023-07-08T01:19:59;21.10;99.90
20070;DHT22;10195;50.868;4.382;2023-07-08T01:22:25;21.10;99.90
20070;DHT22;10195;50.868;4.382;2023-07-08T01:24:57;21.00;99.90
20070;DHT22;10195;50.868;4.382;2023-07-08T01:27:29;21.00;99.90
20070;DHT22;10195;50.868;4.382;2023-07-08T01:29:56;21.00;99.90
20070;DHT22;10195;50.868;4.382;2023-07-08T01:32:21;21.00;99.90
20070;DHT22;10195;50.868;4.382;2023-07-08T01:34:47;21.00;99.90
20070;DHT22;10195;50.868;4.382;2023-07-08T01:37:38;21.00;99.90
20070;DHT22;10195;50.868;4.382;2023-07-08T01:40:34;20.90;99.90
20070;DHT22;10195;50.868;4.382;2023-07-08T01:43:01;20.90;99.90
20070;DHT22;10195;50.868;4.382;2023-07-08T01:45:31;20.90;99.90
20070;DHT22;10195;50.868;4.382;2023-07-08T01:48:03;20.90;99.90
20070;DHT22;10195;50.868;4.382;2023-07-08T01:50:29;20.90;99.90
20070;DHT22;10195;50.868;4.382;2023-07-08T01:52:59;20.90;99.90
20070;DHT22;10195;50.868;4.382;2023-07-08T01:55:26;20.90;99.90
20070;DHT22;10195;50.868;4.382;2023-07-08T01:57:54;21.00;99.90
20070;DHT22;10195;50.868;4.382;2023-07-08T02:00:21;20.90;99.90
20070;DHT22;10195;50.868;4.382;2023-07-08T02:02:47;20.80;99.90
20070;DHT22;10195;50.868;4.382;2023-07-08T02:05:13;20.80;99.90
20070;DHT22;10195;50.868;4.382;2023-07-08T02:07:39;20.90;99.90
20070;DHT22;10195;50.868;4.382;2023-07-08T02:10:05;20.80;99.90
20070;DHT22;10195;50.868;4.382;2023-07-08T02:12:31;20.70;99.90
20070;DHT22;10195;50.868;4.382;2023-07-08T02:14:59;20.60;99.90
20070;DHT22;10195;50.868;4.382;2023-07-08T02:17:24;20.50;99.90
20070;DHT22;10195;50.868;4.382;2023-07-08T02:19:50;20.50;99.90
20070;DHT22;10195;50.868;4.382;2023-07-08T02:22:16;20.50;99.90
20070;DHT22;10195;50.868;4.382;2023-07-08T02:24:41;20.60;99.90
20070;DHT22;10195;50.868;4.382;2023-07-08T02:27:07;20.50;99.90
20070;DHT22;10195;50.868;4.382;2023-07-08T02:29:32;20.50;99.90
20070;DHT22;10195;50.868;4.382;2023-07-08T02:31:58;20.50;99.90
20070;DHT22;10195;50.868;4.382;2023-07-08T02:34:24;20.40;99.90
20070;DHT22;10195;50.868;4.382;2023-07-08T02:36:49;20.30;99.90
20070;DHT22;10195;50.868;4.382;2023-07-08T02:39:15;20.40;99.90
20070;DHT22;10195;50.868;4.382;2023-07-08T02:41:41;20.40;99.90
20070;DHT22;10195;50.868;4.382;2023-07-08T02:44:06;20.40;99.90
20070;DHT22;10195;50.868;4.382;2023-07-08T02:46:32;20.40;99.90
20070;DHT22;10195;50.868;4.382;2023-07-08T02:48:57;20.30;99.90
20070;DHT22;10195;50.868;4.382;2023-07-08T02:51:23;20.30;99.90
20070;DHT22;10195;50.868;4.382;2023-07-08T02:53:50;20.30;99.90
20070;DHT22;10195;50.868;4.382;2023-07-08T02:56:15;20.10;99.90
20070;DHT22;10195;50.868;4.382;2023-07-08T02:58:41;20.10;99.90
20070;DHT22;10195;50.868;4.382;2023-07-08T03:01:08;20.20;99.90
20070;DHT22;10195;50.868;4.382;2023-07-08T03:03:34;20.20;99.90
20070;DHT22;10195;50.868;4.382;2023-07-08T03:06:04;20.20;99.90
20070;DHT22;10195;50.868;4.382;2023-07-08T03:08:32;20.20;99.90
20070;DHT22;10195;50.868;4.382;2023-07-08T03:11:00;20.20;99.90
20070;DHT22;10195;50.868;4.382;2023-07-08T03:13:27;20.30;99.90
20070;DHT22;10195;50.868;4.382;2023-07-08T03:15:53;20.30;99.90
20070;DHT22;10195;50.868;4.382;2023-07-08T03:18:20;20.30;99.90
20070;DHT22;10195;50.868;4.382;2023-07-08T03:20:49;20.40;99.90
20070;DHT22;10195;50.868;4.382;2023-07-08T03:23:14;20.30;99.90
20070;DHT22;10195;50.868;4.382;2023-07-08T03:25:40;20.30;99.90
20070;DHT22;10195;50.868;4.382;2023-07-08T03:28:07;20.40;99.90
20070;DHT22;10195;50.868;4.382;2023-07-08T03:30:33;20.40;99.90
20070;DHT22;10195;50.868;4.382;2023-07-08T03:33:00;20.30;99.90
20070;DHT22;10195;50.868;4.382;2023-07-08T03:35:26;20.30;99.90
20070;DHT22;10195;50.868;4.382;2023-07-08T03:37:52;20.30;99.90
20070;DHT22;10195;50.868;4.382;2023-07-08T03:40:18;20.30;99.90
20070;DHT22;10195;50.868;4.382;2023-07-08T03:42:44;20.20;99.90
20070;DHT22;10195;50.868;4.382;2023-07-08T03:45:10;20.20;99.90
20070;DHT22;10195;50.868;4.382;2023-07-08T03:47:35;20.20;99.90
20070;DHT22;10195;50.868;4.382;2023-07-08T03:50:01;20.20;99.90
20070;DHT22;10195;50.868;4.382;2023-07-08T03:52:27;20.30;99.90
20070;DHT22;10195;50.868;4.382;2023-07-08T03:54:52;20.30;99.90
20070;DHT22;10195;50.868;4.382;2023-07-08T03:57:18;20.30;99.90
20070;DHT22;10195;50.868;4.382;2023-07-08T03:59:44;20.30;99.90
20070;DHT22;10195;50.868;4.382;2023-07-08T04:02:12;20.30;99.90
20070;DHT22;10195;50.868;4.382;2023-07-08T04:04:38;20.30;99.90
20070;DHT22;10195;50.868;4.382;2023-07-08T04:07:05;20.30;99.90
20070;DHT22;10195;50.868;4.382;2023-07-08T04:09:30;20.30;99.90
20070;DHT22;10195;50.868;4.382;2023-07-08T04:11:56;20.30;99.90
20070;DHT22;10195;50.868;4.382;2023-07-08T04:14:23;20.30;99.90
20070;DHT22;10195;50.868;4.382;2023-07-08T04:16:58;20.20;99.90
20070;DHT22;10195;50.868;4.382;2023-07-08T04:19:25;20.30;99.90
20070;DHT22;10195;50.868;4.382;2023-07-08T04:21:52;20.30;99.90
20070;DHT22;10195;50.868;4.382;2023-07-08T04:24:18;20.40;99.90
20070;DHT22;10195;50.868;4.382;2023-07-08T04:26:45;20.50;99.90
20070;DHT22;10195;50.868;4.382;2023-07-08T04:29:13;20.40;99.90
20070;DHT22;10195;50.868;4.382;2023-07-08T04:31:39;20.30;99.90
20070;DHT22;10195;50.868;4.382;2023-07-08T04:34:05;20.40;99.90
20070;DHT22;10195;50.868;4.382;2023-07-08T04:36:32;20.40;99.90
20070;DHT22;10195;50.868;4.382;2023-07-08T04:38:58;20.50;99.90
20070;DHT22;10195;50.868;4.382;2023-07-08T04:41:25;20.60;99.90
20070;DHT22;10195;50.868;4.382;2023-07-08T04:43:54;20.60;99.90
20070;DHT22;10195;50.868;4.382;2023-07-08T04:46:47;20.60;99.90
20070;DHT22;10195;50.868;4.382;2023-07-08T04:49:13;20.60;99.90
20070;DHT22;10195;50.868;4.382;2023-07-08T04:51:40;20.60;99.90
20070;DHT22;10195;50.868;4.382;2023-07-08T04:54:06;20.60;99.90
20070;DHT22;10195;50.868;4.382;2023-07-08T04:56:41;20.70;99.90
20070;DHT22;10195;50.868;4.382;2023-07-08T04:59:12;20.80;99.90
20070;DHT22;10195;50.868;4.382;2023-07-08T05:01:39;21.00;99.90
20070;DHT22;10195;50.868;4.382;2023-07-08T05:04:05;21.00;99.90
20070;DHT22;10195;50.868;4.382;2023-07-08T05:06:32;21.00;99.90
20070;DHT22;10195;50.868;4.382;2023-07-08T05:08:58;21.00;99.90
20070;DHT22;10195;50.868;4.382;2023-07-08T05:11:24;21.10;99.90
20070;DHT22;10195;50.868;4.382;2023-07-08T05:13:50;21.40;99.90
20070;DHT22;10195;50.868;4.382;2023-07-08T05:16:16;21.50;99.90
20070;DHT22;10195;50.868;4.382;2023-07-08T05:18:41;21.60;99.90
20070;DHT22;10195;50.868;4.382;2023-07-08T05:21:08;21.60;99.90
20070;DHT22;10195;50.868;4.382;2023-07-08T05:23:34;21.80;99.90
20070;DHT22;10195;50.868;4.382;2023-07-08T05:26:01;21.80;99.90
20070;DHT22;10195;50.868;4.382;2023-07-08T05:28:27;21.80;99.90
20070;DHT22;10195;50.868;4.382;2023-07-08T05:30:54;21.90;99.90
20070;DHT22;10195;50.868;4.382;2023-07-08T05:33:21;22.00;99.90
20070;DHT22;10195;50.868;4.382;2023-07-08T05:35:47;21.90;99.90
20070;DHT22;10195;50.868;4.382;2023-07-08T05:38:13;22.20;99.90
20070;DHT22;10195;50.868;4.382;2023-07-08T05:40:38;23.30;99.90
20070;DHT22;10195;50.868;4.382;2023-07-08T05:43:04;24.60;99.90
20070;DHT22;10195;50.868;4.382;2023-07-08T05:45:29;25.70;99.90
20070;DHT22;10195;50.868;4.382;2023-07-08T05:47:55;26.80;99.90
20070;DHT22;10195;50.868;4.382;2023-07-08T05:50:21;27.90;99.90
20070;DHT22;10195;50.868;4.382;2023-07-08T05:52:47;29.00;99.90
20070;DHT22;10195;50.868;4.382;2023-07-08T05:55:13;30.00;99.90
20070;DHT22;10195;50.868;4.382;2023-07-08T05:57:38;30.60;99.90
20070;DHT22;10195;50.868;4.382;2023-07-08T06:00:05;30.80;99.90
20070;DHT22;10195;50.868;4.382;2023-07-08T06:02:31;30.90;99.90
20070;DHT22;10195;50.868;4.382;2023-07-08T06:04:57;31.30;99.90
20070;DHT22;10195;50.868;4.382;2023-07-08T06:07:22;31.80;99.90
20070;DHT22;10195;50.868;4.382;2023-07-08T06:09:48;32.30;99.90
20070;DHT22;10195;50.868;4.382;2023-07-08T06:12:14;33.00;99.90
20070;DHT22;10195;50.868;4.382;2023-07-08T06:14:39;33.40;99.90
20070;DHT22;10195;50.868;4.382;2023-07-08T06:17:05;33.60;99.90
20070;DHT22;10195;50.868;4.382;2023-07-08T06:19:31;34.00;99.90
20070;DHT22;10195;50.868;4.382;2023-07-08T06:21:57;34.30;99.90
20070;DHT22;10195;50.868;4.382;2023-07-08T06:24:23;34.40;99.90
20070;DHT22;10195;50.868;4.382;2023-07-08T06:26:49;33.90;99.90
20070;DHT22;10195;50.868;4.382;2023-07-08T06:29:14;33.50;99.90
20070;DHT22;10195;50.868;4.382;2023-07-08T06:31:41;33.80;99.90
20070;DHT22;10195;50.868;4.382;2023-07-08T06:34:07;34.10;99.90
20070;DHT22;10195;50.868;4.382;2023-07-08T06:36:33;34.20;99.90
20070;DHT22;10195;50.868;4.382;2023-07-08T06:38:58;34.30;99.90
20070;DHT22;10195;50.868;4.382;2023-07-08T06:41:24;34.30;99.90
20070;DHT22;10195;50.868;4.382;2023-07-08T06:43:50;33.90;99.90
20070;DHT22;10195;50.868;4.382;2023-07-08T06:46:16;33.90;99.50
20070;DHT22;10195;50.868;4.382;2023-07-08T06:48:42;33.60;99.90
20070;DHT22;10195;50.868;4.382;2023-07-08T06:51:07;33.70;99.90
20070;DHT22;10195;50.868;4.382;2023-07-08T06:53:33;33.80;99.80
20070;DHT22;10195;50.868;4.382;2023-07-08T06:55:59;33.40;99.90
20070;DHT22;10195;50.868;4.382;2023-07-08T06:58:24;33.60;99.90
20070;DHT22;10195;50.868;4.382;2023-07-08T07:00:50;33.00;99.90
20070;DHT22;10195;50.868;4.382;2023-07-08T07:03:16;33.10;99.90
20070;DHT22;10195;50.868;4.382;2023-07-08T07:05:43;33.70;99.70
20070;DHT22;10195;50.868;4.382;2023-07-08T07:08:09;33.70;99.90
20070;DHT22;10195;50.868;4.382;2023-07-08T07:10:35;33.70;99.90
20070;DHT22;10195;50.868;4.382;2023-07-08T07:13:01;34.60;99.20
20070;DHT22;10195;50.868;4.382;2023-07-08T07:15:27;34.60;98.40
20070;DHT22;10195;50.868;4.382;2023-07-08T07:17:52;34.80;97.20
20070;DHT22;10195;50.868;4.382;2023-07-08T07:20:18;35.30;96.10
20070;DHT22;10195;50.868;4.382;2023-07-08T07:22:44;35.60;95.60
20070;DHT22;10195;50.868;4.382;2023-07-08T07:25:10;36.10;95.20
20070;DHT22;10195;50.868;4.382;2023-07-08T07:27:35;36.10;94.80
20070;DHT22;10195;50.868;4.382;2023-07-08T07:30:01;35.30;94.90
20070;DHT22;10195;50.868;4.382;2023-07-08T07:32:27;35.30;95.10
20070;DHT22;10195;50.868;4.382;2023-07-08T07:34:55;35.60;94.40
20070;DHT22;10195;50.868;4.382;2023-07-08T07:37:21;36.20;93.80
20070;DHT22;10195;50.868;4.382;2023-07-08T07:39:47;36.60;92.80
20070;DHT22;10195;50.868;4.382;2023-07-08T07:42:14;35.60;93.40
20070;DHT22;10195;50.868;4.382;2023-07-08T07:44:41;35.10;92.10
20070;DHT22;10195;50.868;4.382;2023-07-08T07:47:08;34.40;93.00
20070;DHT22;10195;50.868;4.382;2023-07-08T07:49:34;34.70;94.30
20070;DHT22;10195;50.868;4.382;2023-07-08T07:52:00;35.50;92.50
20070;DHT22;10195;50.868;4.382;2023-07-08T07:54:25;35.00;92.40
20070;DHT22;10195;50.868;4.382;2023-07-08T07:56:51;34.30;93.50
20070;DHT22;10195;50.868;4.382;2023-07-08T07:59:17;34.60;93.70
20070;DHT22;10195;50.868;4.382;2023-07-08T08:01:43;34.80;94.40
20070;DHT22;10195;50.868;4.382;2023-07-08T08:04:10;35.00;94.30
20070;DHT22;10195;50.868;4.382;2023-07-08T08:06:37;35.30;93.40
20070;DHT22;10195;50.868;4.382;2023-07-08T08:09:03;35.40;91.70
20070;DHT22;10195;50.868;4.382;2023-07-08T08:11:30;35.40;91.80
20070;DHT22;10195;50.868;4.382;2023-07-08T08:13:56;36.00;90.60
20070;DHT22;10195;50.868;4.382;2023-07-08T08:16:22;36.30;88.60
20070;DHT22;10195;50.868;4.382;2023-07-08T08:18:48;36.50;87.10
20070;DHT22;10195;50.868;4.382;2023-07-08T08:21:13;35.70;88.60
20070;DHT22;10195;50.868;4.382;2023-07-08T08:23:39;36.00;90.00
20070;DHT22;10195;50.868;4.382;2023-07-08T08:26:05;35.80;89.10
20070;DHT22;10195;50.868;4.382;2023-07-08T08:28:31;35.60;90.10
20070;DHT22;10195;50.868;4.382;2023-07-08T08:30:56;35.40;89.60
20070;DHT22;10195;50.868;4.382;2023-07-08T08:33:22;35.50;89.00
20070;DHT22;10195;50.868;4.382;2023-07-08T08:35:48;36.60;90.00
20070;DHT22;10195;50.868;4.382;2023-07-08T08:38:13;36.60;86.60
20070;DHT22;10195;50.868;4.382;2023-07-08T08:40:41;35.70;86.30
20070;DHT22;10195;50.868;4.382;2023-07-08T08:43:21;35.30;89.10
20070;DHT22;10195;50.868;4.382;2023-07-08T08:48:20;37.10;86.50
20070;DHT22;10195;50.868;4.382;2023-07-08T08:50:52;37.40;84.80
20070;DHT22;10195;50.868;4.382;2023-07-08T08:53:21;38.30;81.40
20070;DHT22;10195;50.868;4.382;2023-07-08T08:56:11;38.40;82.50
20070;DHT22;10195;50.868;4.382;2023-07-08T08:59:33;38.10;82.00
20070;DHT22;10195;50.868;4.382;2023-07-08T09:01:30;37.40;81.00
20070;DHT22;10195;50.868;4.382;2023-07-08T09:04:20;36.40;82.40
20070;DHT22;10195;50.868;4.382;2023-07-08T09:06:47;36.40;81.00
20070;DHT22;10195;50.868;4.382;2023-07-08T09:09:58;35.90;80.60
20070;DHT22;10195;50.868;4.382;2023-07-08T09:12:22;34.10;83.80
20070;DHT22;10195;50.868;4.382;2023-07-08T09:14:50;34.30;85.30
20070;DHT22;10195;50.868;4.382;2023-07-08T09:20:24;36.50;83.70
20070;DHT22;10195;50.868;4.382;2023-07-08T09:23:17;37.80;77.70
20070;DHT22;10195;50.868;4.382;2023-07-08T09:25:51;37.20;77.30
20070;DHT22;10195;50.868;4.382;2023-07-08T09:28:19;36.20;78.00
20070;DHT22;10195;50.868;4.382;2023-07-08T09:30:48;37.00;77.20
20070;DHT22;10195;50.868;4.382;2023-07-08T09:33:15;37.50;76.00
20070;DHT22;10195;50.868;4.382;2023-07-08T09:35:43;36.80;74.60
20070;DHT22;10195;50.868;4.382;2023-07-08T09:38:15;36.30;78.00
20070;DHT22;10195;50.868;4.382;2023-07-08T09:40:47;36.30;78.90
20070;DHT22;10195;50.868;4.382;2023-07-08T09:43:39;37.20;75.40
20070;DHT22;10195;50.868;4.382;2023-07-08T09:46:05;36.00;76.40
20070;DHT22;10195;50.868;4.382;2023-07-08T09:48:37;35.40;77.70
20070;DHT22;10195;50.868;4.382;2023-07-08T09:51:03;36.10;76.80
20070;DHT22;10195;50.868;4.382;2023-07-08T09:53:29;37.10;76.10
20070;DHT22;10195;50.868;4.382;2023-07-08T09:55:59;36.60;77.60
20070;DHT22;10195;50.868;4.382;2023-07-08T09:58:32;36.90;76.20
20070;DHT22;10195;50.868;4.382;2023-07-08T10:01:13;37.40;76.50
20070;DHT22;10195;50.868;4.382;2023-07-08T10:03:40;37.80;74.90
20070;DHT22;10195;50.868;4.382;2023-07-08T10:06:20;37.50;74.80
20070;DHT22;10195;50.868;4.382;2023-07-08T10:08:46;36.80;77.80
20070;DHT22;10195;50.868;4.382;2023-07-08T10:11:39;36.40;74.70
20070;DHT22;10195;50.868;4.382;2023-07-08T10:14:19;35.50;75.90
20070;DHT22;10195;50.868;4.382;2023-07-08T10:16:48;34.40;79.00
20070;DHT22;10195;50.868;4.382;2023-07-08T10:19:16;34.20;78.80
20070;DHT22;10195;50.868;4.382;2023-07-08T10:21:55;34.10;81.10
20070;DHT22;10195;50.868;4.382;2023-07-08T10:27:50;34.40;81.00
20070;DHT22;10195;50.868;4.382;2023-07-08T10:30:24;34.00;80.70
20070;DHT22;10195;50.868;4.382;2023-07-08T10:36:28;33.70;78.80
20070;DHT22;10195;50.868;4.382;2023-07-08T10:44:25;34.10;79.90
20070;DHT22;10195;50.868;4.382;2023-07-08T10:50:36;32.90;83.80
20070;DHT22;10195;50.868;4.382;2023-07-08T10:52:41;32.90;83.20
20070;DHT22;10195;50.868;4.382;2023-07-08T10:55:17;33.20;81.30
20070;DHT22;10195;50.868;4.382;2023-07-08T11:05:45;33.80;84.10
20070;DHT22;10195;50.868;4.382;2023-07-08T11:08:17;34.00;85.00
20070;DHT22;10195;50.868;4.382;2023-07-08T11:10:49;33.70;83.30
20070;DHT22;10195;50.868;4.382;2023-07-08T11:13:19;33.50;86.30
20070;DHT22;10195;50.868;4.382;2023-07-08T11:18:16;34.00;86.30
20070;DHT22;10195;50.868;4.382;2023-07-08T11:21:00;34.10;85.00
20070;DHT22;10195;50.868;4.382;2023-07-08T11:23:39;34.10;85.60
20070;DHT22;10195;50.868;4.382;2023-07-08T11:28:40;34.20;84.80
20070;DHT22;10195;50.868;4.382;2023-07-08T11:31:07;34.30;84.30
20070;DHT22;10195;50.868;4.382;2023-07-08T11:33:33;34.50;84.80
20070;DHT22;10195;50.868;4.382;2023-07-08T11:36:01;34.30;85.20
20070;DHT22;10195;50.868;4.382;2023-07-08T11:38:28;34.40;85.00
20070;DHT22;10195;50.868;4.382;2023-07-08T11:40:59;34.20;86.20
20070;DHT22;10195;50.868;4.382;2023-07-08T11:43:28;34.20;88.60
20070;DHT22;10195;50.868;4.382;2023-07-08T11:46:04;34.50;86.10
20070;DHT22;10195;50.868;4.382;2023-07-08T11:48:34;34.60;87.00
20070;DHT22;10195;50.868;4.382;2023-07-08T11:51:06;34.60;87.20
20070;DHT22;10195;50.868;4.382;2023-07-08T11:53:36;34.90;87.10
20070;DHT22;10195;50.868;4.382;2023-07-08T11:56:18;35.30;87.60
20070;DHT22;10195;50.868;4.382;2023-07-08T11:59:08;35.20;86.50
20070;DHT22;10195;50.868;4.382;2023-07-08T12:09:15;34.90;86.90
20070;DHT22;10195;50.868;4.382;2023-07-08T12:11:47;34.60;88.90
20070;DHT22;10195;50.868;4.382;2023-07-08T12:14:13;34.80;88.10
20070;DHT22;10195;50.868;4.382;2023-07-08T12:16:40;35.00;89.00
20070;DHT22;10195;50.868;4.382;2023-07-08T12:19:13;35.00;86.30
20070;DHT22;10195;50.868;4.382;2023-07-08T12:21:41;35.00;86.70
20070;DHT22;10195;50.868;4.382;2023-07-08T12:24:10;34.70;88.80
20070;DHT22;10195;50.868;4.382;2023-07-08T12:26:36;34.00;89.40
20070;DHT22;10195;50.868;4.382;2023-07-08T12:29:02;34.20;90.60
20070;DHT22;10195;50.868;4.382;2023-07-08T12:31:28;34.50;90.30
20070;DHT22;10195;50.868;4.382;2023-07-08T12:33:55;34.30;90.10
20070;DHT22;10195;50.868;4.382;2023-07-08T12:36:24;34.60;90.90
20070;DHT22;10195;50.868;4.382;2023-07-08T12:38:52;34.60;90.30
20070;DHT22;10195;50.868;4.382;2023-07-08T12:41:30;34.60;90.80
20070;DHT22;10195;50.868;4.382;2023-07-08T12:43:57;35.00;90.50
20070;DHT22;10195;50.868;4.382;2023-07-08T12:46:23;34.90;90.30
20070;DHT22;10195;50.868;4.382;2023-07-08T12:48:50;34.90;90.50
20070;DHT22;10195;50.868;4.382;2023-07-08T12:51:19;34.60;90.30
20070;DHT22;10195;50.868;4.382;2023-07-08T12:53:49;34.00;91.10
20070;DHT22;10195;50.868;4.382;2023-07-08T12:56:15;33.50;91.90
20070;DHT22;10195;50.868;4.382;2023-07-08T12:58:45;32.70;94.60
20070;DHT22;10195;50.868;4.382;2023-07-08T13:01:18;31.60;97.30
20070;DHT22;10195;50.868;4.382;2023-07-08T13:03:45;30.80;99.40
20070;DHT22;10195;50.868;4.382;2023-07-08T13:06:15;30.30;99.90
20070;DHT22;10195;50.868;4.382;2023-07-08T13:08:42;29.90;99.90
20070;DHT22;10195;50.868;4.382;2023-07-08T13:11:08;29.60;99.90
20070;DHT22;10195;50.868;4.382;2023-07-08T13:13:37;29.00;99.90
20070;DHT22;10195;50.868;4.382;2023-07-08T13:16:04;28.50;99.90
20070;DHT22;10195;50.868;4.382;2023-07-08T13:18:36;27.40;99.90
20070;DHT22;10195;50.868;4.382;2023-07-08T13:21:03;24.60;99.90
20070;DHT22;10195;50.868;4.382;2023-07-08T13:23:30;22.90;99.90
20070;DHT22;10195;50.868;4.382;2023-07-08T13:25:56;21.90;99.90
20070;DHT22;10195;50.868;4.382;2023-07-08T13:31:21;21.20;99.90
20070;DHT22;10195;50.868;4.382;2023-07-08T13:33:56;21.20;99.90
20070;DHT22;10195;50.868;4.382;2023-07-08T13:36:35;21.30;99.90
20070;DHT22;10195;50.868;4.382;2023-07-08T13:39:08;21.60;99.90
20070;DHT22;10195;50.868;4.382;2023-07-08T13:41:34;21.90;99.90
20070;DHT22;10195;50.868;4.382;2023-07-08T13:44:05;22.00;99.90
20070;DHT22;10195;50.868;4.382;2023-07-08T13:46:43;22.40;99.90
20070;DHT22;10195;50.868;4.382;2023-07-08T13:52:24;23.30;99.90
20070;DHT22;10195;50.868;4.382;2023-07-08T13:55:02;23.80;99.90
20070;DHT22;10195;50.868;4.382;2023-07-08T13:57:37;23.80;99.90
20070;DHT22;10195;50.868;4.382;2023-07-08T14:00:04;24.50;99.90
20070;DHT22;10195;50.868;4.382;2023-07-08T14:02:31;25.30;99.90
20070;DHT22;10195;50.868;4.382;2023-07-08T14:04:58;26.10;99.90
20070;DHT22;10195;50.868;4.382;2023-07-08T14:07:28;26.70;99.90
20070;DHT22;10195;50.868;4.382;2023-07-08T14:09:54;27.10;99.90
20070;DHT22;10195;50.868;4.382;2023-07-08T14:12:20;27.60;99.90
20070;DHT22;10195;50.868;4.382;2023-07-08T14:14:46;27.70;99.90
20070;DHT22;10195;50.868;4.382;2023-07-08T14:17:15;28.20;99.90
20070;DHT22;10195;50.868;4.382;2023-07-08T14:19:44;28.60;99.90
20070;DHT22;10195;50.868;4.382;2023-07-08T14:24:41;28.40;99.90
20070;DHT22;10195;50.868;4.382;2023-07-08T14:27:09;28.30;99.90
20070;DHT22;10195;50.868;4.382;2023-07-08T14:29:38;28.50;99.90
20070;DHT22;10195;50.868;4.382;2023-07-08T14:32:04;28.60;99.90
20070;DHT22;10195;50.868;4.382;2023-07-08T14:34:30;28.80;99.90
20070;DHT22;10195;50.868;4.382;2023-07-08T14:36:57;28.80;99.90
20070;DHT22;10195;50.868;4.382;2023-07-08T14:39:22;28.80;99.90
20070;DHT22;10195;50.868;4.382;2023-07-08T14:41:49;29.00;99.90
20070;DHT22;10195;50.868;4.382;2023-07-08T14:44:22;29.20;99.90
20070;DHT22;10195;50.868;4.382;2023-07-08T14:46:48;29.40;99.90
20070;DHT22;10195;50.868;4.382;2023-07-08T14:49:17;29.70;99.90
20070;DHT22;10195;50.868;4.382;2023-07-08T14:51:43;29.80;99.90
20070;DHT22;10195;50.868;4.382;2023-07-08T14:54:08;29.80;99.90
20070;DHT22;10195;50.868;4.382;2023-07-08T14:56:34;29.90;99.90
20070;DHT22;10195;50.868;4.382;2023-07-08T14:59:00;30.10;99.90
20070;DHT22;10195;50.868;4.382;2023-07-08T15:01:26;30.40;99.90
20070;DHT22;10195;50.868;4.382;2023-07-08T15:03:58;30.70;99.90
20070;DHT22;10195;50.868;4.382;2023-07-08T15:06:24;30.80;99.90
20070;DHT22;10195;50.868;4.382;2023-07-08T15:08:50;30.60;99.90
20070;DHT22;10195;50.868;4.382;2023-07-08T15:11:17;30.50;99.90
20070;DHT22;10195;50.868;4.382;2023-07-08T15:13:44;30.50;99.90
20070;DHT22;10195;50.868;4.382;2023-07-08T15:16:15;30.50;99.90
20070;DHT22;10195;50.868;4.382;2023-07-08T15:18:42;30.50;99.90
20070;DHT22;10195;50.868;4.382;2023-07-08T15:21:12;30.70;99.90
20070;DHT22;10195;50.868;4.382;2023-07-08T15:23:38;30.80;99.90
20070;DHT22;10195;50.868;4.382;2023-07-08T15:26:04;30.90;99.90
20070;DHT22;10195;50.868;4.382;2023-07-08T15:28:45;30.80;99.90
20070;DHT22;10195;50.868;4.382;2023-07-08T15:31:20;30.90;99.90
20070;DHT22;10195;50.868;4.382;2023-07-08T15:33:49;31.10;99.90
20070;DHT22;10195;50.868;4.382;2023-07-08T15:36:15;31.00;99.90
20070;DHT22;10195;50.868;4.382;2023-07-08T15:38:40;31.00;99.90
20070;DHT22;10195;50.868;4.382;2023-07-08T15:41:17;31.10;99.90
20070;DHT22;10195;50.868;4.382;2023-07-08T15:43:44;31.20;99.90
20070;DHT22;10195;50.868;4.382;2023-07-08T15:46:09;31.50;99.90
20070;DHT22;10195;50.868;4.382;2023-07-08T15:48:35;31.60;99.90
20070;DHT22;10195;50.868;4.382;2023-07-08T15:51:01;31.30;99.90
20070;DHT22;10195;50.868;4.382;2023-07-08T15:53:26;31.50;99.90
20070;DHT22;10195;50.868;4.382;2023-07-08T15:55:52;31.60;99.90
20070;DHT22;10195;50.868;4.382;2023-07-08T15:58:26;31.70;99.90
20070;DHT22;10195;50.868;4.382;2023-07-08T16:00:53;31.60;99.90
20070;DHT22;10195;50.868;4.382;2023-07-08T16:03:24;31.60;99.90
20070;DHT22;10195;50.868;4.382;2023-07-08T16:05:51;31.60;99.90
20070;DHT22;10195;50.868;4.382;2023-07-08T16:08:17;31.80;99.90
20070;DHT22;10195;50.868;4.382;2023-07-08T16:10:45;31.90;99.90
20070;DHT22;10195;50.868;4.382;2023-07-08T16:13:13;32.00;99.90
20070;DHT22;10195;50.868;4.382;2023-07-08T16:15:39;32.10;99.90
20070;DHT22;10195;50.868;4.382;2023-07-08T16:18:09;32.20;99.90
20070;DHT22;10195;50.868;4.382;2023-07-08T16:20:36;32.30;99.90
20070;DHT22;10195;50.868;4.382;2023-07-08T16:23:02;32.40;99.90
20070;DHT22;10195;50.868;4.382;2023-07-08T16:25:31;32.40;99.90
20070;DHT22;10195;50.868;4.382;2023-07-08T16:27:58;32.50;99.90
20070;DHT22;10195;50.868;4.382;2023-07-08T16:30:25;32.50;99.90